createdAt,value
2023-02-14T00:01:26.617Z,5.17
2023-02-14T00:03:54.698Z,5.31
2023-02-14T00:06:22.341Z,5.11
2023-02-14T00:08:52.326Z,5.08
2023-02-14T00:11:20.652Z,5.01
2023-02-14T00:14:07.331Z,5.15
2023-02-14T00:19:05.422Z,5.04
2023-02-14T00:21:36.367Z,5.08
2023-02-14T00:24:06.064Z,4.99
2023-02-14T00:26:34.438Z,4.95
2023-02-14T00:29:02.196Z,4.96
2023-02-14T00:31:30.448Z,5.03
2023-02-14T00:33:58.167Z,4.91
2023-02-14T00:36:26.593Z,5.10
2023-02-14T00:38:54.171Z,4.96
2023-02-14T00:41:22.662Z,4.91
2023-02-14T00:43:54.791Z,5.01
2023-02-14T00:46:24.564Z,4.96
2023-02-14T00:48:53.011Z,4.92
2023-02-14T00:51:21.853Z,4.94
2023-02-14T00:53:51.535Z,5.04
2023-02-14T00:56:20.299Z,4.89
2023-02-14T00:58:48.223Z,4.90
2023-02-14T01:01:19.310Z,4.96
2023-02-14T01:03:47.500Z,4.78
2023-02-14T01:06:15.743Z,4.92
2023-02-14T01:08:43.392Z,4.92
2023-02-14T01:11:13.700Z,5.03
2023-02-14T01:13:41.512Z,4.85
2023-02-14T01:16:12.453Z,4.95
2023-02-14T01:18:41.304Z,4.82
2023-02-14T01:21:23.382Z,4.81
2023-02-14T01:23:53.179Z,4.85
2023-02-14T01:26:23.127Z,4.83
2023-02-14T01:28:51.219Z,4.67
2023-02-14T01:31:24.162Z,4.69
2023-02-14T01:33:52.467Z,4.72
2023-02-14T01:36:24.593Z,4.69
2023-02-14T01:38:56.774Z,4.83
2023-02-14T01:41:25.928Z,4.87
2023-02-14T01:44:04.134Z,4.73
2023-02-14T01:46:37.517Z,4.70
2023-02-14T01:49:20.513Z,4.68
2023-02-14T01:52:11.841Z,4.60
2023-02-14T01:54:46.277Z,4.63
2023-02-14T01:57:18.288Z,4.83
2023-02-14T01:59:53.588Z,4.69
2023-02-14T02:02:23.962Z,4.61
2023-02-14T02:04:55.757Z,4.78
2023-02-14T02:07:29.321Z,4.59
2023-02-14T02:10:02.762Z,4.56
2023-02-14T02:12:31.113Z,4.51
2023-02-14T02:15:00.071Z,4.56
2023-02-14T02:17:38.235Z,4.62
2023-02-14T02:20:42.186Z,4.64
2023-02-14T02:23:17.954Z,4.72
2023-02-14T02:26:07.403Z,4.56
2023-02-14T02:28:44.277Z,4.48
2023-02-14T02:31:20.329Z,4.43
2023-02-14T02:34:22.892Z,4.34
2023-02-14T02:37:11.987Z,4.47
2023-02-14T02:40:16.677Z,4.40
2023-02-14T02:43:15.378Z,4.51
2023-02-14T02:46:30.583Z,4.54
2023-02-14T02:49:41.897Z,4.38
2023-02-14T02:53:00.893Z,4.37
2023-02-14T02:56:21.792Z,4.28
2023-02-14T02:59:06.706Z,4.33
2023-02-14T03:01:38.129Z,4.17
2023-02-14T03:04:29.644Z,4.25
2023-02-14T03:07:00.697Z,4.48
2023-02-14T03:09:29.558Z,4.27
2023-02-14T03:12:34.610Z,4.24
2023-02-14T03:15:30.335Z,4.40
2023-02-14T03:18:03.833Z,4.38
2023-02-14T03:20:49.710Z,4.38
2023-02-14T03:23:30.441Z,4.35
2023-02-14T03:26:14.705Z,4.27
2023-02-14T03:28:57.694Z,4.30
2023-02-14T03:31:36.471Z,4.31
2023-02-14T03:34:25.109Z,4.21
2023-02-14T03:37:12.527Z,4.43
2023-02-14T03:40:02.092Z,4.20
2023-02-14T03:42:45.907Z,4.12
2023-02-14T03:45:22.559Z,4.10
2023-02-14T03:47:51.643Z,4.14
2023-02-14T03:50:20.711Z,4.05
2023-02-14T03:52:53.515Z,3.98
2023-02-14T03:55:39.358Z,4.02
2023-02-14T03:58:13.034Z,3.94
2023-02-14T04:00:43.673Z,3.91
2023-02-14T04:03:15.236Z,3.86
2023-02-14T04:05:46.770Z,3.81
2023-02-14T04:08:22.751Z,3.78
2023-02-14T04:10:52.585Z,3.86
2023-02-14T04:13:21.146Z,3.84
2023-02-14T04:15:48.928Z,3.83
2023-02-14T04:18:35.313Z,3.80
2023-02-14T04:21:02.891Z,3.80
2023-02-14T04:23:30.785Z,3.79
2023-02-14T04:25:58.597Z,3.85
2023-02-14T04:28:26.430Z,3.74
2023-02-14T04:30:54.007Z,3.84
2023-02-14T04:33:22.063Z,3.75
2023-02-14T04:35:49.996Z,3.77
2023-02-14T04:38:17.784Z,3.75
2023-02-14T04:40:45.452Z,3.56
2023-02-14T04:43:13.306Z,3.55
2023-02-14T04:45:40.956Z,3.55
2023-02-14T04:48:08.896Z,3.65
2023-02-14T04:50:36.569Z,3.69
2023-02-14T04:53:04.398Z,3.60
2023-02-14T04:55:31.987Z,3.67
2023-02-14T04:57:59.769Z,3.68
2023-02-14T05:00:27.458Z,3.62
2023-02-14T05:02:55.376Z,3.70
2023-02-14T05:05:22.987Z,3.67
2023-02-14T05:07:50.816Z,3.69
2023-02-14T05:10:18.554Z,3.62
2023-02-14T05:12:46.387Z,3.60
2023-02-14T05:15:13.943Z,3.67
2023-02-14T05:17:41.799Z,3.56
2023-02-14T05:20:10.071Z,3.66
2023-02-14T05:22:38.039Z,3.65
2023-02-14T05:25:05.876Z,3.63
2023-02-14T05:27:33.701Z,3.76
2023-02-14T05:30:01.247Z,3.64
2023-02-14T05:32:29.251Z,3.62
2023-02-14T05:34:56.855Z,3.55
2023-02-14T05:37:24.668Z,3.67
2023-02-14T05:39:52.263Z,3.61
2023-02-14T05:42:20.122Z,3.65
2023-02-14T05:44:48.761Z,3.62
2023-02-14T05:47:16.559Z,3.55
2023-02-14T05:49:44.042Z,3.62
2023-02-14T05:52:11.991Z,3.58
2023-02-14T05:54:39.500Z,3.68
2023-02-14T05:57:07.481Z,3.66
2023-02-14T05:59:35.029Z,3.64
2023-02-14T06:02:02.971Z,3.59
2023-02-14T06:04:30.692Z,3.58
2023-02-14T06:06:58.666Z,3.60
2023-02-14T06:09:26.258Z,3.58
2023-02-14T06:11:55.373Z,3.66
2023-02-14T06:14:23.037Z,3.75
2023-02-14T06:16:50.980Z,3.66
2023-02-14T06:19:18.616Z,3.71
2023-02-14T06:21:46.923Z,3.59
2023-02-14T06:24:14.764Z,3.56
2023-02-14T06:26:42.797Z,3.66
2023-02-14T06:29:10.474Z,3.66
2023-02-14T06:31:38.491Z,3.58
2023-02-14T06:34:06.196Z,3.65
2023-02-14T06:36:34.293Z,3.58
2023-02-14T06:39:01.880Z,3.75
2023-02-14T06:41:29.979Z,3.63
2023-02-14T06:43:57.561Z,3.64
2023-02-14T06:46:25.995Z,3.60
2023-02-14T06:48:53.527Z,3.53
2023-02-14T06:51:21.310Z,3.60
2023-02-14T06:53:48.835Z,3.65
2023-02-14T06:56:16.624Z,3.60
2023-02-14T06:58:44.234Z,3.58
2023-02-14T07:01:12.243Z,3.57
2023-02-14T07:03:39.946Z,3.67
2023-02-14T07:06:07.896Z,3.77
2023-02-14T07:08:35.419Z,3.83
2023-02-14T07:11:03.485Z,3.81
2023-02-14T07:13:31.164Z,3.79
2023-02-14T07:15:59.095Z,4.05
2023-02-14T07:18:26.830Z,3.98
2023-02-14T07:20:54.667Z,4.05
2023-02-14T07:23:22.377Z,4.08
2023-02-14T07:25:50.365Z,4.00
2023-02-14T07:28:17.997Z,4.17
2023-02-14T07:30:46.028Z,4.11
2023-02-14T07:33:13.890Z,4.16
2023-02-14T07:35:41.718Z,4.21
2023-02-14T07:38:09.545Z,4.17
2023-02-14T07:40:37.373Z,4.26
2023-02-14T07:43:04.940Z,4.22
2023-02-14T07:45:32.840Z,4.16
2023-02-14T07:48:02.282Z,4.23
2023-02-14T07:50:30.512Z,4.33
2023-02-14T07:52:58.075Z,4.43
2023-02-14T07:55:25.911Z,4.31
2023-02-14T07:57:53.788Z,4.23
2023-02-14T08:00:22.380Z,4.20
2023-02-14T08:02:50.140Z,4.27
2023-02-14T08:05:18.691Z,4.17
2023-02-14T08:07:50.472Z,4.26
2023-02-14T08:10:18.539Z,4.32
2023-02-14T08:13:01.229Z,4.39
2023-02-14T08:15:50.318Z,4.63
2023-02-14T08:18:19.049Z,4.71
2023-02-14T08:20:50.721Z,4.62
2023-02-14T08:23:20.001Z,4.62
2023-02-14T08:25:51.804Z,4.59
2023-02-14T08:28:22.160Z,4.49
2023-02-14T08:30:50.980Z,4.55
2023-02-14T08:33:19.427Z,4.74
2023-02-14T08:35:47.566Z,4.61
2023-02-14T08:38:15.186Z,4.68
2023-02-14T08:40:43.402Z,4.78
2023-02-14T08:43:11.672Z,5.03
2023-02-14T08:45:40.364Z,4.99
2023-02-14T08:48:11.144Z,4.59
2023-02-14T08:50:39.984Z,4.47
2023-02-14T08:53:10.169Z,4.61
2023-02-14T08:55:40.150Z,4.72
2023-02-14T08:58:08.237Z,4.84
2023-02-14T09:00:36.229Z,4.73
2023-02-14T09:03:04.036Z,4.92
2023-02-14T09:05:33.331Z,5.07
2023-02-14T09:08:03.278Z,5.16
2023-02-14T09:10:31.515Z,5.42
2023-02-14T09:12:59.159Z,5.28
2023-02-14T09:15:27.047Z,5.41
2023-02-14T09:17:54.830Z,5.35
2023-02-14T09:20:22.839Z,5.23
2023-02-14T09:22:50.539Z,5.29
2023-02-14T09:25:18.438Z,5.45
2023-02-14T09:27:46.058Z,5.48
2023-02-14T09:30:14.649Z,5.76
2023-02-14T09:32:42.536Z,5.96
2023-02-14T09:35:10.332Z,5.86
2023-02-14T09:37:37.933Z,5.90
2023-02-14T09:40:06.578Z,6.03
2023-02-14T09:42:53.206Z,5.89
2023-02-14T09:45:25.379Z,6.04
2023-02-14T09:48:32.230Z,6.06
2023-02-14T09:51:11.906Z,6.38
2023-02-14T09:54:04.813Z,6.28
2023-02-14T09:56:54.373Z,6.29
2023-02-14T09:59:34.436Z,6.20
2023-02-14T10:02:34.552Z,6.24
2023-02-14T10:05:32.355Z,6.05
2023-02-14T10:08:06.154Z,6.28
2023-02-14T10:10:45.519Z,6.27
2023-02-14T10:13:46.349Z,6.12
2023-02-14T10:16:13.855Z,6.25
2023-02-14T10:18:49.960Z,6.42
2023-02-14T10:21:33.815Z,6.43
2023-02-14T10:24:16.278Z,6.42
2023-02-14T10:26:45.410Z,6.30
2023-02-14T10:29:18.358Z,6.26
2023-02-14T10:31:58.104Z,6.22
2023-02-14T10:35:00.726Z,6.22
2023-02-14T10:38:10.314Z,6.33
2023-02-14T10:40:47.023Z,5.98
2023-02-14T10:43:20.167Z,6.13
2023-02-14T10:46:29.859Z,6.16
2023-02-14T10:49:24.734Z,6.16
2023-02-14T10:52:15.471Z,6.12
2023-02-14T10:54:50.944Z,6.31
2023-02-14T10:57:31.275Z,6.21
2023-02-14T11:00:07.195Z,6.26
2023-02-14T11:02:41.319Z,6.25
2023-02-14T11:05:14.499Z,6.29
2023-02-14T11:07:45.519Z,6.36
2023-02-14T11:10:15.950Z,6.40
2023-02-14T11:12:43.869Z,6.37
2023-02-14T11:15:20.723Z,6.36
2023-02-14T11:17:48.891Z,6.25
2023-02-14T11:20:20.012Z,6.34
2023-02-14T11:22:47.945Z,6.20
2023-02-14T11:25:23.017Z,6.05
2023-02-14T11:28:03.561Z,6.02
2023-02-14T11:30:42.931Z,6.20
2023-02-14T11:33:43.286Z,6.42
2023-02-14T11:36:14.752Z,6.46
2023-02-14T11:38:54.471Z,6.48
2023-02-14T11:41:24.452Z,6.62
2023-02-14T11:44:09.483Z,6.23
2023-02-14T11:46:52.305Z,6.15
2023-02-14T11:49:27.572Z,6.06
2023-02-14T11:51:57.107Z,6.08
2023-02-14T11:54:30.634Z,6.28
2023-02-14T11:57:17.464Z,6.40
2023-02-14T11:59:48.516Z,6.39
2023-02-14T12:02:32.637Z,6.41
2023-02-14T12:05:07.019Z,6.26
2023-02-14T12:07:38.008Z,6.27
2023-02-14T12:10:33.477Z,6.40
2023-02-14T12:13:26.038Z,6.43
2023-02-14T12:15:56.524Z,6.20
2023-02-14T12:18:39.311Z,6.00
2023-02-14T12:21:12.853Z,6.12
2023-02-14T12:23:56.817Z,6.57
2023-02-14T12:26:43.633Z,6.84
2023-02-14T12:29:34.300Z,6.81
2023-02-14T12:32:18.353Z,6.75
2023-02-14T12:34:46.057Z,6.93
2023-02-14T12:37:27.470Z,6.87
2023-02-14T12:40:16.193Z,6.55
2023-02-14T12:43:20.588Z,6.52
2023-02-14T12:45:49.030Z,6.72
2023-02-14T12:48:33.492Z,6.87
2023-02-14T12:51:19.244Z,7.13
2023-02-14T12:53:49.729Z,6.89
2023-02-14T12:56:33.612Z,7.04
2023-02-14T12:59:23.170Z,6.96
2023-02-14T13:01:55.354Z,7.00
2023-02-14T13:04:46.741Z,7.01
2023-02-14T13:07:26.799Z,7.06
2023-02-14T13:10:14.635Z,7.01
2023-02-14T13:13:04.626Z,7.05
2023-02-14T13:15:46.602Z,7.01
2023-02-14T13:18:36.159Z,6.87
2023-02-14T13:21:08.433Z,6.59
2023-02-14T13:23:45.332Z,6.62
2023-02-14T13:26:31.338Z,6.59
2023-02-14T13:29:11.075Z,6.79
2023-02-14T13:31:40.426Z,6.71
2023-02-14T13:34:29.385Z,6.37
2023-02-14T13:37:00.693Z,6.15
2023-02-14T13:39:59.424Z,6.03
2023-02-14T13:42:49.913Z,6.01
2023-02-14T13:45:34.873Z,6.30
2023-02-14T13:48:09.035Z,6.33
2023-02-14T13:50:40.875Z,6.32
2023-02-14T13:53:29.286Z,6.23
2023-02-14T13:55:57.280Z,6.17
2023-02-14T13:58:25.789Z,6.28
2023-02-14T14:00:54.743Z,6.18
2023-02-14T14:03:28.926Z,6.21
2023-02-14T14:06:11.111Z,6.22
2023-02-14T14:08:42.285Z,6.18
2023-02-14T14:11:22.202Z,6.12
2023-02-14T14:13:58.935Z,6.14
2023-02-14T14:16:26.794Z,6.11
2023-02-14T14:18:54.812Z,6.15
2023-02-14T14:21:46.259Z,6.09
2023-02-14T14:24:27.761Z,6.21
2023-02-14T14:27:17.548Z,6.13
2023-02-14T14:29:47.216Z,6.20
2023-02-14T14:32:36.324Z,6.19
2023-02-14T14:35:12.509Z,6.14
2023-02-14T14:37:55.530Z,6.10
2023-02-14T14:40:37.447Z,6.12
2023-02-14T14:43:31.413Z,6.19
2023-02-14T14:46:02.331Z,6.11
2023-02-14T14:48:54.967Z,6.16
2023-02-14T14:51:32.225Z,6.04
2023-02-14T14:54:02.391Z,6.11
2023-02-14T14:56:34.280Z,6.28
2023-02-14T14:59:26.802Z,6.17
2023-02-14T15:01:55.392Z,6.01
2023-02-14T15:04:29.512Z,5.98
2023-02-14T15:07:17.438Z,6.09
2023-02-14T15:09:45.040Z,6.09
2023-02-14T15:12:35.036Z,6.17
2023-02-14T15:15:04.473Z,6.06
2023-02-14T15:17:33.473Z,6.14
2023-02-14T15:20:05.579Z,6.15
2023-02-14T15:22:48.200Z,6.38
2023-02-14T15:25:21.857Z,6.16
2023-02-14T15:27:50.572Z,6.02
2023-02-14T15:30:34.776Z,6.04
2023-02-14T15:33:04.914Z,5.91
2023-02-14T15:35:42.173Z,5.89
2023-02-14T15:38:12.117Z,5.82
2023-02-14T15:40:40.420Z,5.80
2023-02-14T15:43:32.022Z,6.00
2023-02-14T15:46:24.018Z,5.93
2023-02-14T15:48:53.038Z,6.02
2023-02-14T15:51:24.743Z,5.93
2023-02-14T15:53:59.424Z,5.89
2023-02-14T15:56:30.399Z,5.90
2023-02-14T15:59:07.139Z,5.76
2023-02-14T16:01:36.473Z,5.83
2023-02-14T16:04:06.990Z,5.62
2023-02-14T16:06:44.450Z,5.51
2023-02-14T16:09:31.074Z,5.48
2023-02-14T16:11:58.646Z,5.33
2023-02-14T16:14:32.521Z,5.26
2023-02-14T16:17:06.824Z,5.25
2023-02-14T16:19:41.583Z,5.08
2023-02-14T16:22:24.432Z,5.07
2023-02-14T16:24:52.313Z,4.98
2023-02-14T16:27:19.884Z,4.74
2023-02-14T16:29:47.685Z,4.71
2023-02-14T16:32:21.160Z,4.55
2023-02-14T16:34:49.959Z,4.50
2023-02-14T16:37:31.632Z,4.53
2023-02-14T16:40:01.716Z,4.31
2023-02-14T16:42:29.418Z,4.16
2023-02-14T16:44:57.780Z,4.17
2023-02-14T16:47:27.736Z,4.09
2023-02-14T16:49:55.665Z,3.98
2023-02-14T16:52:27.019Z,3.91
2023-02-14T16:54:55.019Z,3.82
2023-02-14T16:57:44.514Z,3.86
2023-02-14T17:00:13.465Z,3.90
2023-02-14T17:02:44.158Z,3.89
2023-02-14T17:05:12.547Z,3.67
2023-02-14T17:07:43.567Z,3.72
2023-02-14T17:10:18.045Z,3.58
2023-02-14T17:12:47.484Z,3.45
2023-02-14T17:15:18.794Z,3.40
2023-02-14T17:17:48.841Z,3.43
2023-02-14T17:20:19.924Z,3.44
2023-02-14T17:22:48.091Z,3.46
2023-02-14T17:25:16.013Z,3.60
2023-02-14T17:27:44.615Z,3.44
2023-02-14T17:30:14.591Z,3.48
2023-02-14T17:32:42.957Z,3.36
2023-02-14T17:35:11.959Z,3.34
2023-02-14T17:37:39.674Z,3.32
2023-02-14T17:40:08.660Z,3.28
2023-02-14T17:42:38.624Z,3.17
2023-02-14T17:45:07.363Z,3.11
2023-02-14T17:47:35.741Z,3.29
2023-02-14T17:50:03.940Z,3.21
2023-02-14T17:52:32.174Z,3.15
2023-02-14T17:55:00.258Z,3.20
2023-02-14T17:57:27.988Z,3.05
2023-02-14T17:59:58.114Z,3.08
2023-02-14T18:02:26.555Z,2.98
2023-02-14T18:04:55.219Z,2.94
2023-02-14T18:07:23.784Z,2.88
2023-02-14T18:09:51.904Z,2.94
2023-02-14T18:12:19.769Z,3.04
2023-02-14T18:14:47.692Z,2.88
2023-02-14T18:17:15.512Z,2.97
2023-02-14T18:19:43.443Z,2.90
2023-02-14T18:22:11.558Z,2.88
2023-02-14T18:24:39.491Z,2.86
2023-02-14T18:27:07.262Z,2.91
2023-02-14T18:29:36.382Z,3.03
2023-02-14T18:32:04.837Z,2.88
2023-02-14T18:34:35.775Z,3.01
2023-02-14T18:37:04.472Z,2.95
2023-02-14T18:39:32.958Z,2.85
2023-02-14T18:42:01.439Z,2.83
2023-02-14T18:44:29.562Z,2.92
2023-02-14T18:46:57.207Z,2.81
2023-02-14T18:49:24.983Z,2.75
2023-02-14T18:51:52.547Z,2.72
2023-02-14T18:54:20.408Z,2.64
2023-02-14T18:56:48.042Z,2.59
2023-02-14T18:59:16.868Z,2.61
2023-02-14T19:01:46.085Z,2.58
2023-02-14T19:04:14.381Z,2.56
2023-02-14T19:06:42.822Z,2.59
2023-02-14T19:09:13.656Z,2.51
2023-02-14T19:11:41.701Z,2.49
2023-02-14T19:14:10.612Z,2.49
2023-02-14T19:16:53.503Z,2.49
2023-02-14T19:19:22.842Z,2.37
2023-02-14T19:21:50.786Z,2.39
2023-02-14T19:24:19.850Z,2.41
2023-02-14T19:26:48.344Z,2.38
2023-02-14T19:29:18.268Z,2.36
2023-02-14T19:31:49.632Z,2.38
2023-02-14T19:34:24.039Z,2.33
2023-02-14T19:36:53.411Z,2.32
2023-02-14T19:39:23.068Z,2.29
2023-02-14T19:41:51.293Z,2.29
2023-02-14T19:44:19.433Z,2.23
2023-02-14T19:46:47.887Z,2.22
2023-02-14T19:49:20.594Z,2.15
2023-02-14T19:51:51.195Z,2.10
2023-02-14T19:54:19.642Z,2.20
2023-02-14T19:56:47.920Z,2.15
2023-02-14T19:59:20.341Z,2.08
2023-02-14T20:01:51.431Z,2.13
2023-02-14T20:04:23.356Z,2.08
2023-02-14T20:06:51.805Z,2.05
2023-02-14T20:09:23.517Z,1.97
2023-02-14T20:11:54.492Z,1.97
2023-02-14T20:14:40.934Z,1.91
2023-02-14T20:17:17.952Z,1.89
2023-02-14T20:19:45.828Z,1.79
2023-02-14T20:22:13.630Z,1.71
2023-02-14T20:24:41.607Z,1.72
2023-02-14T20:27:09.085Z,1.71
2023-02-14T20:29:39.052Z,1.75
2023-02-14T20:32:07.102Z,1.65
2023-02-14T20:34:35.392Z,1.65
2023-02-14T20:37:02.993Z,1.69
2023-02-14T20:39:35.061Z,1.75
2023-02-14T20:42:02.819Z,1.77
2023-02-14T20:44:31.124Z,1.70
2023-02-14T20:46:58.933Z,1.65
2023-02-14T20:49:28.552Z,1.70
2023-02-14T20:51:56.837Z,1.63
2023-02-14T20:54:26.764Z,1.57
2023-02-14T20:56:54.546Z,1.51
2023-02-14T20:59:28.911Z,1.49
2023-02-14T21:01:58.364Z,1.47
2023-02-14T21:04:26.872Z,1.60
2023-02-14T21:06:54.681Z,1.62
2023-02-14T21:09:22.572Z,1.59
2023-02-14T21:11:50.417Z,1.55
2023-02-14T21:14:18.276Z,1.47
2023-02-14T21:16:45.941Z,1.38
2023-02-14T21:19:13.806Z,1.53
2023-02-14T21:21:41.743Z,1.61
2023-02-14T21:24:15.314Z,1.67
2023-02-14T21:26:43.515Z,1.59
2023-02-14T21:29:11.797Z,1.49
2023-02-14T21:31:39.741Z,1.42
2023-02-14T21:34:07.675Z,1.47
2023-02-14T21:36:35.995Z,1.37
2023-02-14T21:39:05.169Z,1.40
2023-02-14T21:41:32.894Z,1.60
2023-02-14T21:44:02.078Z,1.61
2023-02-14T21:46:32.370Z,1.78
2023-02-14T21:49:23.968Z,1.90
2023-02-14T21:51:51.925Z,2.06
2023-02-14T21:54:19.796Z,2.14
2023-02-14T21:56:49.245Z,2.11
2023-02-14T21:59:17.408Z,2.24
2023-02-14T22:01:45.023Z,2.40
2023-02-14T22:04:13.507Z,2.44
2023-02-14T22:06:42.534Z,2.51
2023-02-14T22:09:12.798Z,2.54
2023-02-14T22:11:40.500Z,2.57
2023-02-14T22:14:08.713Z,2.59
2023-02-14T22:16:36.904Z,2.66
2023-02-14T22:19:06.005Z,2.67
2023-02-14T22:21:34.065Z,2.77
2023-02-14T22:24:02.078Z,2.88
2023-02-14T22:26:38.730Z,2.94
2023-02-14T22:29:08.111Z,2.98
2023-02-14T22:31:41.996Z,3.08
2023-02-14T22:34:13.720Z,3.16
2023-02-14T22:36:41.768Z,3.10
2023-02-14T22:39:10.713Z,3.27
2023-02-14T22:41:38.444Z,3.21
2023-02-14T22:44:07.201Z,3.23
2023-02-14T22:46:36.832Z,3.27
2023-02-14T22:49:05.908Z,3.32
2023-02-14T22:51:41.866Z,3.33
2023-02-14T22:54:15.315Z,3.34
2023-02-14T22:56:51.638Z,3.36
2023-02-14T22:59:23.113Z,3.34
2023-02-14T23:01:52.789Z,3.43
2023-02-14T23:04:22.801Z,3.46
2023-02-14T23:06:52.027Z,3.46
2023-02-14T23:09:20.440Z,3.50
2023-02-14T23:11:48.817Z,3.53
2023-02-14T23:14:36.753Z,3.55
2023-02-14T23:17:25.146Z,3.59
2023-02-14T23:20:11.596Z,3.55
2023-02-14T23:22:41.152Z,3.50
2023-02-14T23:25:11.983Z,3.72
2023-02-14T23:27:43.468Z,3.63
2023-02-14T23:30:14.795Z,3.62
2023-02-14T23:32:42.473Z,3.52
2023-02-14T23:35:10.386Z,3.56
2023-02-14T23:37:38.392Z,3.58
2023-02-14T23:40:07.195Z,3.59
2023-02-14T23:42:34.760Z,3.60
2023-02-14T23:45:21.357Z,3.63
2023-02-14T23:47:49.039Z,3.70
2023-02-14T23:50:17.260Z,3.75
2023-02-14T23:52:44.863Z,3.81
2023-02-14T23:55:13.072Z,3.79
2023-02-14T23:57:40.659Z,3.80
